Terminal Aerodrome Forecast
Issued by NWS Grand Rapids, MI

Home | Current Version | Previous Version | Text Only | Print | Product List | Glossary On
Versions: 1 2 3 4 5 6 7 8 9 10 11 12 13 14 15 16 17 18 19 20 21
000
FTUS43 KGRR 310600 AAA
TAFGRR
TAF AMD
KGRR 310606Z 3106/0106 18007KT P6SM OVC025
     FM311600 24010KT P6SM BKN025
     FM010300 01007KT P6SM -SN OVC025=

USA.gov is the U.S. government's official web portal to all federal, state and local government web resources and services.